createdAt,value
2019-02-19T00:00:32.143Z,83.18
2019-02-19T00:01:32.278Z,83.47
2019-02-19T00:02:32.688Z,83.94
2019-02-19T00:03:33.653Z,84.42
2019-02-19T00:04:33.636Z,85.55
2019-02-19T00:05:34.614Z,86.69
2019-02-19T00:06:34.711Z,86.6
2019-02-19T00:07:35.677Z,87.16
2019-02-19T00:08:36.813Z,88.4
2019-02-19T00:09:37.504Z,89.06
2019-02-19T00:10:37.918Z,89.25
2019-02-19T00:11:38.612Z,89.34
2019-02-19T00:12:40.056Z,89.68
2019-02-19T00:13:40.467Z,89.87
2019-02-19T00:14:40.879Z,90.44
2019-02-19T00:15:41.574Z,91.1
2019-02-19T00:16:42.419Z,91.57
2019-02-19T00:17:43.106Z,92.05
2019-02-19T00:18:44.239Z,92.05
2019-02-19T00:19:44.929Z,91.57
2019-02-19T00:20:46.342Z,91
2019-02-19T00:21:46.756Z,91.86
2019-02-19T00:22:47.458Z,92.33
2019-02-19T00:23:48.157Z,91.95
2019-02-19T00:24:49.575Z,92.24
2019-02-19T00:25:49.585Z,91.76
2019-02-19T00:26:50.732Z,91.19
2019-02-19T00:27:51.701Z,91.67
2019-02-19T00:28:52.391Z,93.18
2019-02-19T00:29:53.087Z,93.27
2019-02-19T00:30:54.497Z,93.65
2019-02-19T00:31:55.198Z,93.65
2019-02-19T00:32:56.166Z,93.27
2019-02-19T00:33:56.858Z,93.08
2019-02-19T00:34:57.835Z,92.99
2019-02-19T00:35:58.810Z,92.71
2019-02-19T00:36:59.375Z,92.33
2019-02-19T00:37:59.796Z,92.99
2019-02-19T00:39:00.768Z,93.18
2019-02-19T00:40:01.736Z,92.9
2019-02-19T00:41:01.986Z,92.99
2019-02-19T00:42:02.695Z,92.71
2019-02-19T00:43:04.225Z,93.08
2019-02-19T00:44:04.919Z,92.8
2019-02-19T00:45:05.889Z,93.46
2019-02-19T00:46:06.853Z,93.65
2019-02-19T00:47:08.540Z,93.27
2019-02-19T00:48:08.508Z,93.46
2019-02-19T00:49:09.200Z,93.75
2019-02-19T00:50:09.906Z,93.84
2019-02-19T00:51:10.321Z,93.75
2019-02-19T00:52:11.046Z,93.46
2019-02-19T00:53:11.456Z,92.8
2019-02-19T00:54:12.425Z,92.8
2019-02-19T00:55:12.412Z,92.52
2019-02-19T00:56:12.832Z,92.43
2019-02-19T00:57:13.660Z,92.33
2019-02-19T00:58:15.194Z,91.86
2019-02-19T00:59:15.605Z,91.62
2019-02-19T01:00:16.582Z,91.9
2019-02-19T01:01:17.553Z,92.09
2019-02-19T01:02:17.971Z,91.81
2019-02-19T01:03:18.936Z,91.71
2019-02-19T01:04:19.627Z,91.62
2019-02-19T01:05:20.313Z,91.76
2019-02-19T01:06:21.452Z,91.81
2019-02-19T01:07:22.032Z,92
2019-02-19T01:08:22.551Z,91.62
2019-02-19T01:09:23.560Z,92.09
2019-02-19T01:10:23.976Z,92.43
2019-02-19T01:11:24.670Z,92.94
2019-02-19T01:12:25.082Z,92.9
2019-02-19T01:13:25.491Z,93.75
2019-02-19T01:14:26.202Z,94.32
2019-02-19T01:15:28.207Z,95.07
2019-02-19T01:16:28.625Z,94.51
2019-02-19T01:17:29.555Z,94.51
2019-02-19T01:18:30.085Z,94.89
2019-02-19T01:19:30.499Z,95.74
2019-02-19T01:20:30.466Z,95.45
2019-02-19T01:21:31.155Z,94.98
2019-02-19T01:22:31.845Z,95.17
2019-02-19T01:23:32.823Z,95.45
2019-02-19T01:24:33.233Z,95.45
2019-02-19T01:25:34.487Z,96.12
2019-02-19T01:26:35.178Z,95.83
2019-02-19T01:27:35.555Z,95.93
2019-02-19T01:28:35.990Z,96.02
2019-02-19T01:29:36.676Z,96.02
2019-02-19T01:30:37.809Z,96.31
2019-02-19T01:31:38.225Z,95.93
2019-02-19T01:32:39.639Z,96.02
2019-02-19T01:33:40.377Z,95.74
2019-02-19T01:34:40.791Z,95.83
2019-02-19T01:35:41.489Z,96.02
2019-02-19T01:36:41.895Z,95.83
2019-02-19T01:37:42.748Z,95.83
2019-02-19T01:38:43.164Z,95.83
2019-02-19T01:39:43.575Z,95.83
2019-02-19T01:40:43.991Z,96.21
2019-02-19T01:41:45.273Z,96.12
2019-02-19T01:42:46.241Z,96.21
2019-02-19T01:43:47.211Z,96.21
2019-02-19T01:44:47.971Z,96.31
2019-02-19T01:45:48.662Z,96.02
2019-02-19T01:46:49.353Z,96.21
2019-02-19T01:47:51.005Z,96.12
2019-02-19T01:48:51.691Z,96.12
2019-02-19T01:49:52.392Z,95.74
2019-02-19T01:50:53.084Z,94.89
2019-02-19T01:51:53.777Z,95.26
2019-02-19T01:52:55.019Z,95.45
2019-02-19T01:53:55.154Z,95.45
2019-02-19T01:54:56.121Z,95.26
2019-02-19T01:55:56.267Z,95.26
2019-02-19T01:56:57.231Z,95.45
2019-02-19T01:57:57.494Z,95.26
2019-02-19T01:58:58.461Z,96.12
2019-02-19T01:59:59.443Z,95.36
2019-02-19T02:01:00.872Z,95.45
2019-02-19T02:02:01.006Z,95.26
2019-02-19T02:03:01.702Z,94.6
2019-02-19T02:04:02.960Z,94.89
2019-02-19T02:05:03.929Z,95.36
2019-02-19T02:06:04.898Z,95.45
2019-02-19T02:07:05.370Z,95.45
2019-02-19T02:08:06.616Z,96.12
2019-02-19T02:09:07.605Z,95.93
2019-02-19T02:10:07.857Z,95.64
2019-02-19T02:11:08.277Z,95.55
2019-02-19T02:12:08.985Z,95.74
2019-02-19T02:13:09.956Z,96.12
2019-02-19T02:14:11.088Z,96.21
2019-02-19T02:15:11.498Z,96.12
2019-02-19T02:16:12.186Z,96.12
2019-02-19T02:17:12.650Z,95.83
2019-02-19T02:18:13.471Z,96.12
2019-02-19T02:19:14.165Z,96.02
2019-02-19T02:20:15.722Z,96.21
2019-02-19T02:21:15.762Z,96.5
2019-02-19T02:22:16.450Z,96.78
2019-02-19T02:23:17.138Z,96.31
2019-02-19T02:24:18.107Z,96.5
2019-02-19T02:25:18.628Z,97.02
2019-02-19T02:26:19.344Z,97.11
2019-02-19T02:27:20.313Z,97.11
2019-02-19T02:28:21.708Z,97.49
2019-02-19T02:29:22.449Z,97.2
2019-02-19T02:30:23.420Z,97.96
2019-02-19T02:31:24.524Z,98.15
2019-02-19T02:32:24.773Z,97.87
2019-02-19T02:33:25.295Z,97.87
2019-02-19T02:34:26.538Z,97.77
2019-02-19T02:35:27.232Z,97.49
2019-02-19T02:36:28.209Z,98.06
2019-02-19T02:37:27.947Z,97.68
2019-02-19T02:38:29.049Z,98.06
2019-02-19T02:39:30.016Z,97.77
2019-02-19T02:40:31.407Z,97.87
2019-02-19T02:41:31.117Z,97.87
2019-02-19T02:42:32.105Z,98.06
2019-02-19T02:43:32.834Z,97.87
2019-02-19T02:44:33.811Z,97.77
2019-02-19T02:45:34.805Z,97.58
2019-02-19T02:46:35.612Z,97.49
2019-02-19T02:47:35.873Z,97.77
2019-02-19T02:48:37.150Z,98.06
2019-02-19T02:49:37.401Z,97.87
2019-02-19T02:50:38.368Z,97.87
2019-02-19T02:51:39.343Z,97.96
2019-02-19T02:52:40.036Z,97.87
2019-02-19T02:53:40.453Z,97.3
2019-02-19T02:54:40.875Z,97.87
2019-02-19T02:55:41.568Z,97.39
2019-02-19T02:56:42.554Z,98.15
2019-02-19T02:57:43.796Z,97.96
2019-02-19T02:58:43.930Z,97.77
2019-02-19T02:59:44.626Z,97.87
2019-02-19T03:00:45.074Z,98.06
2019-02-19T03:01:46.045Z,97.96
2019-02-19T03:02:47.301Z,97.58
2019-02-19T03:03:48.007Z,97.68
2019-02-19T03:04:49.425Z,97.58
2019-02-19T03:05:50.572Z,98.06
2019-02-19T03:06:51.259Z,98.06
2019-02-19T03:07:51.516Z,98.25
2019-02-19T03:08:52.721Z,97.77
2019-02-19T03:09:53.406Z,98.53
2019-02-19T03:10:53.823Z,98.06
2019-02-19T03:11:55.083Z,97.68
2019-02-19T03:12:55.514Z,97.68
2019-02-19T03:13:56.481Z,97.68
2019-02-19T03:14:57.167Z,98.44
2019-02-19T03:16:03.892Z,98.15
2019-02-19T03:16:10.177Z,98.34
2019-02-19T03:17:11.000Z,98.34
2019-02-19T03:18:13.519Z,98.25
2019-02-19T03:19:12.848Z,98.25
2019-02-19T03:20:13.818Z,98.34
2019-02-19T03:21:14.232Z,98.25
2019-02-19T03:22:14.923Z,98.34
2019-02-19T03:23:15.626Z,98.06
2019-02-19T03:24:16.592Z,98.06
2019-02-19T03:25:17.559Z,97.77
2019-02-19T03:26:18.266Z,97.96
2019-02-19T03:27:18.691Z,98.25
2019-02-19T03:28:19.126Z,98.72
2019-02-19T03:29:19.540Z,98.34
2019-02-19T03:30:20.850Z,98.63
2019-02-19T03:31:21.487Z,98.53
2019-02-19T03:32:22.572Z,98.63
2019-02-19T03:33:23.159Z,99.1
2019-02-19T03:34:23.530Z,98.34
2019-02-19T03:35:24.080Z,99.01
2019-02-19T03:36:25.066Z,99.1
2019-02-19T03:37:26.025Z,98.82
2019-02-19T03:38:26.990Z,98.34
2019-02-19T03:39:27.682Z,99.19
2019-02-19T03:40:28.934Z,99.01
2019-02-19T03:41:29.759Z,99.29
2019-02-19T03:42:29.899Z,99.1
2019-02-19T03:43:30.587Z,98.72
2019-02-19T03:44:31.754Z,99.66
2019-02-19T03:45:32.869Z,99.38
2019-02-19T03:46:34.150Z,99.48
2019-02-19T03:47:34.545Z,99.57
2019-02-19T03:48:35.820Z,99.66
2019-02-19T03:49:36.857Z,99.38
2019-02-19T03:50:37.271Z,99.19
2019-02-19T03:51:37.694Z,98.91
2019-02-19T03:52:38.708Z,99.1
2019-02-19T03:53:39.406Z,99.19
2019-02-19T03:54:40.664Z,99.01
2019-02-19T03:55:41.641Z,99.29
2019-02-19T03:56:42.056Z,99.29
2019-02-19T03:57:42.450Z,99.01
2019-02-19T03:58:43.692Z,99.19
2019-02-19T03:59:44.689Z,99.29
2019-02-19T04:00:44.932Z,99.19
2019-02-19T04:01:45.625Z,99.01
2019-02-19T04:02:46.599Z,98.72
2019-02-19T04:03:47.011Z,99.19
2019-02-19T04:04:47.550Z,99.01
2019-02-19T04:05:48.020Z,99.29
2019-02-19T04:06:49.008Z,99.19
2019-02-19T04:07:49.227Z,99.38
2019-02-19T04:08:50.638Z,99.57
2019-02-19T04:09:51.605Z,99.01
2019-02-19T04:10:52.023Z,99.33
2019-02-19T04:11:52.715Z,99.15
2019-02-19T04:12:53.403Z,99.66
2019-02-19T04:13:54.646Z,99.52
2019-02-19T04:14:55.636Z,99.52
2019-02-19T04:15:56.612Z,99.33
2019-02-19T04:16:57.649Z,99.62
2019-02-19T04:17:58.349Z,99.33
2019-02-19T04:18:59.051Z,99.71
2019-02-19T04:20:00.303Z,99.8
2019-02-19T04:21:01.002Z,99.99
2019-02-19T04:22:02.526Z,99.99
2019-02-19T04:23:02.944Z,99.52
2019-02-19T04:24:03.955Z,99.52
2019-02-19T04:25:04.966Z,99.43
2019-02-19T04:26:05.958Z,99.99
2019-02-19T04:27:06.206Z,99.99
2019-02-19T04:28:07.139Z,99.99
2019-02-19T04:29:08.113Z,99.99
2019-02-19T04:30:09.090Z,99.99
2019-02-19T04:31:09.347Z,99.71
2019-02-19T04:32:09.319Z,99.99
2019-02-19T04:33:10.762Z,99.99
2019-02-19T04:34:11.352Z,99.99
2019-02-19T04:35:11.907Z,99.9
2019-02-19T04:36:12.887Z,99.99
2019-02-19T04:37:13.852Z,99.99
2019-02-19T04:38:14.983Z,99.99
2019-02-19T04:39:14.996Z,99.99
2019-02-19T04:40:15.690Z,99.52
2019-02-19T04:41:16.959Z,99.99
2019-02-19T04:42:17.859Z,99.99
2019-02-19T04:43:17.908Z,99.99
2019-02-19T04:44:18.604Z,99.99
2019-02-19T04:45:20.154Z,99.99
2019-02-19T04:46:32.915Z,99.99
2019-02-19T04:47:33.320Z,99.99
2019-02-19T04:48:33.729Z,99.99
2019-02-19T04:49:34.753Z,99.99
2019-02-19T04:50:35.729Z,99.99
2019-02-19T04:51:36.144Z,99.99
2019-02-19T04:52:36.712Z,99.99
2019-02-19T04:53:36.696Z,99.99
2019-02-19T04:54:37.669Z,99.99
2019-02-19T04:55:38.721Z,99.99
2019-02-19T04:56:39.158Z,99.85
2019-02-19T04:57:40.387Z,99.99
2019-02-19T04:58:41.687Z,99.99
2019-02-19T04:59:42.381Z,99.99
2019-02-19T05:00:43.182Z,99.99
2019-02-19T05:01:43.596Z,99.95
2019-02-19T05:02:44.594Z,99.99
2019-02-19T05:03:45.877Z,99.99
2019-02-19T05:04:45.858Z,99.85
2019-02-19T05:05:46.685Z,99.95
2019-02-19T05:06:47.679Z,99.99
2019-02-19T05:07:48.517Z,99.99
2019-02-19T05:08:49.781Z,99.95
2019-02-19T05:09:50.749Z,99.76
2019-02-19T05:10:51.442Z,99.95
2019-02-19T05:11:52.141Z,99.99
2019-02-19T05:12:52.827Z,99.85
2019-02-19T05:13:54.344Z,99.99
2019-02-19T05:14:54.623Z,99.99
2019-02-19T05:15:54.604Z,99.99
2019-02-19T05:16:55.295Z,99.99
2019-02-19T05:17:55.854Z,99.99
2019-02-19T05:18:56.425Z,99.99
2019-02-19T05:19:57.394Z,99.99
2019-02-19T05:20:58.202Z,99.99
2019-02-19T05:21:58.899Z,99.99
2019-02-19T05:23:00.317Z,99.99
2019-02-19T05:24:01.288Z,99.99
2019-02-19T05:25:01.727Z,99.99
2019-02-19T05:26:03.036Z,99.99
2019-02-19T05:27:03.458Z,99.99
2019-02-19T05:28:04.419Z,99.99
2019-02-19T05:29:05.146Z,99.99
2019-02-19T05:30:05.678Z,99.99
2019-02-19T05:31:06.094Z,99.99
2019-02-19T05:32:07.617Z,99.99
2019-02-19T05:33:08.309Z,99.99
2019-02-19T05:34:09.289Z,99.99
2019-02-19T05:35:10.021Z,99.99
2019-02-19T05:36:10.555Z,99.99
2019-02-19T05:37:11.306Z,99.99
2019-02-19T05:38:12.555Z,99.99
2019-02-19T05:39:12.804Z,99.95
2019-02-19T05:40:13.492Z,99.99
2019-02-19T05:41:14.187Z,99.99
2019-02-19T05:42:15.157Z,99.99
2019-02-19T05:43:16.178Z,99.99
2019-02-19T05:44:17.147Z,99.76
2019-02-19T05:45:18.119Z,99.99
2019-02-19T05:46:18.257Z,99.99
2019-02-19T05:47:19.514Z,99.95
2019-02-19T05:48:20.192Z,99.95
2019-02-19T05:49:20.939Z,99.99
2019-02-19T05:50:21.366Z,99.99
2019-02-19T05:51:22.087Z,99.99
2019-02-19T05:52:23.048Z,99.99
2019-02-19T05:53:23.462Z,99.85
2019-02-19T05:54:24.740Z,99.99
2019-02-19T05:55:25.178Z,99.99
2019-02-19T05:56:25.874Z,99.99
2019-02-19T05:57:26.872Z,99.99
2019-02-19T05:58:27.254Z,99.76
2019-02-19T05:59:27.948Z,99.66
2019-02-19T06:00:29.189Z,99.85
2019-02-19T06:01:29.191Z,99.95
2019-02-19T06:02:30.160Z,99.95
2019-02-19T06:03:30.587Z,99.66
2019-02-19T06:04:31.567Z,99.99
2019-02-19T06:05:31.984Z,99.48
2019-02-19T06:06:32.400Z,99.29
2019-02-19T06:07:33.378Z,99.01
2019-02-19T06:08:34.476Z,99.29
2019-02-19T06:09:35.170Z,99.99
2019-02-19T06:10:36.145Z,99.95
2019-02-19T06:11:37.121Z,99.1
2019-02-19T06:12:38.105Z,99.85
2019-02-19T06:13:39.130Z,98.82
2019-02-19T06:14:39.844Z,98.91
2019-02-19T06:15:40.816Z,98.53
2019-02-19T06:16:41.808Z,98.25
2019-02-19T06:17:42.238Z,98.34
2019-02-19T06:18:42.708Z,98.58
2019-02-19T06:19:43.251Z,98.77
2019-02-19T06:20:44.258Z,98.49
2019-02-19T06:21:44.791Z,98.3
2019-02-19T06:22:46.591Z,97.92
2019-02-19T06:23:47.582Z,97.82
2019-02-19T06:24:48.592Z,97.92
2019-02-19T06:25:49.015Z,98.11
2019-02-19T06:26:49.710Z,97.92
2019-02-19T06:27:49.963Z,97.73
2019-02-19T06:28:50.085Z,97.35
2019-02-19T06:29:50.362Z,97.35
2019-02-19T06:30:51.400Z,97.35
2019-02-19T06:31:51.823Z,98.01
2019-02-19T06:32:52.530Z,97.92
2019-02-19T06:33:53.573Z,97.73
2019-02-19T06:34:54.182Z,97.16
2019-02-19T06:35:54.435Z,96.21
2019-02-19T06:36:55.720Z,96.17
2019-02-19T06:37:56.026Z,94.93
2019-02-19T06:38:56.038Z,95.03
2019-02-19T06:39:56.771Z,94.84
2019-02-19T06:40:57.744Z,94.08
2019-02-19T06:41:57.931Z,93.13
2019-02-19T06:42:58.796Z,92.28
2019-02-19T06:43:59.557Z,91.43
2019-02-19T06:45:00.695Z,91.43
2019-02-19T06:46:01.300Z,90.48
2019-02-19T06:47:07.910Z,90.67
2019-02-19T06:47:14.440Z,90.29
2019-02-19T06:48:14.988Z,89.72
2019-02-19T06:49:16.157Z,90.48
2019-02-19T06:50:17.126Z,88.68
2019-02-19T06:51:17.868Z,88.3
2019-02-19T06:52:18.288Z,87.49
2019-02-19T06:53:19.269Z,86.83
2019-02-19T06:54:19.695Z,86.26
2019-02-19T06:55:20.396Z,84.55
2019-02-19T06:56:21.100Z,82.09
2019-02-19T06:57:21.519Z,81.14
2019-02-19T06:58:22.390Z,80.33
2019-02-19T06:59:23.091Z,77.58
2019-02-19T07:00:23.790Z,75.78
2019-02-19T07:01:24.490Z,73.54
2019-02-19T07:02:25.583Z,72.4
2019-02-19T07:03:26.154Z,72.78
2019-02-19T07:04:26.905Z,73.07
2019-02-19T07:05:27.690Z,75.02
2019-02-19T07:06:28.118Z,74.92
2019-02-19T07:07:29.808Z,76.63
2019-02-19T07:08:30.519Z,77.01
2019-02-19T07:09:31.285Z,78.05
2019-02-19T07:10:35.156Z,77.01
2019-02-19T07:10:46.490Z,76.82
2019-02-19T07:11:45.039Z,77.2
2019-02-19T07:12:47.362Z,77.39
2019-02-19T07:13:01.169Z,77.64
2019-02-19T07:13:13.178Z,77.92
2019-02-19T07:14:12.590Z,79.63
2019-02-19T07:15:12.503Z,78.77
2019-02-19T07:16:13.589Z,80
2019-02-19T07:17:17.147Z,80.67
2019-02-19T07:18:17.404Z,81.62
2019-02-19T07:19:17.577Z,83.13
2019-02-19T07:20:17.997Z,83.13
2019-02-19T07:21:18.711Z,83.04
2019-02-19T07:22:19.687Z,81.81
2019-02-19T07:23:20.103Z,82.85
2019-02-19T07:24:06.574Z,83.23
2019-02-19T07:25:05.364Z,81.43
2019-02-19T07:26:05.950Z,81.9
2019-02-19T07:27:06.651Z,79.57
2019-02-19T07:28:07.390Z,76.73
2019-02-19T07:29:08.934Z,74.64
2019-02-19T07:30:09.424Z,74.26
2019-02-19T07:31:09.959Z,72.21
2019-02-19T07:32:11.211Z,69.93
2019-02-19T07:33:12.195Z,66.36
2019-02-19T07:34:12.617Z,64.11
2019-02-19T07:35:14.468Z,62.59
2019-02-19T07:36:13.724Z,59.11
2019-02-19T07:37:14.758Z,56.19
2019-02-19T07:38:18.350Z,54.69
2019-02-19T07:39:17.461Z,51.58
2019-02-19T07:40:18.548Z,50.54
2019-02-19T07:41:19.492Z,48.85
2019-02-19T07:42:20.722Z,46.58
2019-02-19T07:43:21.043Z,45.18
2019-02-19T07:44:22.570Z,44.34
2019-02-19T07:45:22.878Z,44.53
2019-02-19T07:46:24.288Z,45.37
2019-02-19T07:47:25.778Z,46.97
2019-02-19T07:48:27.284Z,48.66
2019-02-19T07:49:27.821Z,48.94
2019-02-19T07:50:28.841Z,48.66
2019-02-19T07:51:29.723Z,48.92
2019-02-19T07:52:33.045Z,48.08
2019-02-19T07:53:31.843Z,47.16
2019-02-19T07:54:34.042Z,46.01
2019-02-19T07:55:34.996Z,44.51
2019-02-19T07:56:35.432Z,44.42
2019-02-19T07:57:36.735Z,44.42
2019-02-19T07:58:37.464Z,44.7
2019-02-19T07:59:37.956Z,44.51
2019-02-19T08:00:38.379Z,44.13
2019-02-19T08:01:39.125Z,44.42
2019-02-19T08:02:39.906Z,44.68
2019-02-19T08:03:40.364Z,45.44
2019-02-19T08:04:41.845Z,45.92
2019-02-19T08:05:43.628Z,46.49
2019-02-19T08:06:44.136Z,46.68
2019-02-19T08:07:45.248Z,46.2
2019-02-19T08:08:45.688Z,45.73
2019-02-19T08:09:46.402Z,45.47
2019-02-19T08:10:47.142Z,45.37
2019-02-19T08:11:47.587Z,44.32
2019-02-19T08:12:48.294Z,43.2
2019-02-19T08:13:48.744Z,43.01
2019-02-19T08:14:51.871Z,43.08
2019-02-19T08:15:51.343Z,42.44
2019-02-19T08:16:51.776Z,41.67
2019-02-19T08:17:52.348Z,41.79
2019-02-19T08:18:54.224Z,41.86
2019-02-19T08:19:55.108Z,42.15
2019-02-19T08:20:55.815Z,41.5
2019-02-19T08:21:58.670Z,41.88
2019-02-19T08:22:58.004Z,41.98
2019-02-19T08:24:02.452Z,41.69
2019-02-19T08:24:12.629Z,42.34
2019-02-19T08:24:25.215Z,42.15
2019-02-19T08:24:34.882Z,42.34
2019-02-19T08:25:35.851Z,43.39
2019-02-19T08:26:35.678Z,42.91
2019-02-19T08:27:36.662Z,41.96
2019-02-19T08:28:39.801Z,40
2019-02-19T08:29:38.216Z,38.3
2019-02-19T08:30:42.373Z,36.8
2019-02-19T08:30:52.961Z,37.11
2019-02-19T08:31:04.172Z,36.73
2019-02-19T08:31:16.471Z,36.54
2019-02-19T08:31:27.476Z,36.17
2019-02-19T08:32:27.848Z,35.22
2019-02-19T08:33:29.972Z,34.64
2019-02-19T08:33:42.775Z,35.14
2019-02-19T08:33:55.826Z,34.66
2019-02-19T08:34:57.446Z,34.47
2019-02-19T08:35:06.353Z,34.47
2019-02-19T08:36:07.197Z,33.51
2019-02-19T08:37:07.932Z,32.93
2019-02-19T08:38:08.642Z,32.47
2019-02-19T08:39:09.074Z,32.38
2019-02-19T08:40:10.272Z,34.18
2019-02-19T08:41:10.982Z,36.23
2019-02-19T08:42:11.980Z,38.01
2019-02-19T08:43:12.439Z,39.14
2019-02-19T08:44:14.458Z,39.78
2019-02-19T08:45:16.659Z,39.4
2019-02-19T08:46:16.805Z,38.85
2019-02-19T08:47:17.276Z,38.95
2019-02-19T08:48:20.563Z,37.92
2019-02-19T08:48:30.323Z,38.01
2019-02-19T08:49:30.840Z,37.63
2019-02-19T08:50:31.457Z,37.53
2019-02-19T08:51:31.825Z,38.1
2019-02-19T08:52:32.080Z,37.44
2019-02-19T08:53:32.631Z,37.17
2019-02-19T08:54:33.074Z,36.71
2019-02-19T08:55:35.623Z,36.61
2019-02-19T08:56:41.215Z,36.04
2019-02-19T08:56:51.646Z,36.04
2019-02-19T08:57:04.216Z,36.14
2019-02-19T08:57:16.645Z,36.33
2019-02-19T08:57:29.633Z,36.23
2019-02-19T08:57:41.387Z,36.44
2019-02-19T08:57:54.219Z,36.25
2019-02-19T08:58:51.257Z,35.58
2019-02-19T08:59:54.353Z,35.47
2019-02-19T09:00:53.711Z,35.66
2019-02-19T09:01:57.759Z,36.33
2019-02-19T09:02:59.373Z,36.61
2019-02-19T09:03:09.809Z,36.14
2019-02-19T09:04:10.601Z,36.14
2019-02-19T09:04:20.752Z,36.12
2019-02-19T09:05:23.349Z,36.88
2019-02-19T09:06:22.925Z,36.41
2019-02-19T09:07:22.926Z,36.21
2019-02-19T09:08:24.080Z,36.71
2019-02-19T09:09:25.091Z,36.79
2019-02-19T09:10:26.130Z,37.36
2019-02-19T09:11:27.278Z,37.17
2019-02-19T09:12:28.151Z,37.07
2019-02-19T09:13:28.868Z,37.93
2019-02-19T09:14:29.892Z,39.15
2019-02-19T09:15:30.909Z,39.9
2019-02-19T09:16:33.615Z,40.19
2019-02-19T09:17:34.756Z,40.28
2019-02-19T09:18:37.141Z,40.45
2019-02-19T09:18:48.534Z,40.55
2019-02-19T09:19:02.812Z,40.17
2019-02-19T09:19:14.444Z,40.55
2019-02-19T09:19:26.662Z,40.26
2019-02-19T09:19:37.652Z,40.64
2019-02-19T09:20:40.923Z,40.45
2019-02-19T09:21:42.934Z,40.36
2019-02-19T09:21:52.922Z,40.07
2019-02-19T09:22:55.188Z,40.76
2019-02-19T09:23:55.126Z,39.42
2019-02-19T09:24:56.616Z,39.18
2019-02-19T09:25:57.677Z,37.84
2019-02-19T09:26:57.951Z,37.38
2019-02-19T09:27:58.393Z,36.71
2019-02-19T09:28:59.108Z,36.25
2019-02-19T09:29:59.425Z,35.68
2019-02-19T09:31:00.675Z,34.83
2019-02-19T09:32:00.965Z,34.37
2019-02-19T09:33:01.122Z,33.24
2019-02-19T09:34:01.389Z,32.38
2019-02-19T09:35:02.108Z,32.39
2019-02-19T09:36:02.822Z,31.07
2019-02-19T09:37:03.023Z,31.35
2019-02-19T09:38:06.173Z,31.34
2019-02-19T09:38:19.211Z,31.24
2019-02-19T09:38:31.679Z,31.26
2019-02-19T09:38:43.390Z,31.16
2019-02-19T09:39:47.642Z,31.07
2019-02-19T09:39:56.644Z,31.05
2019-02-19T09:40:59.671Z,31.63
2019-02-19T09:41:59.138Z,30.96
2019-02-19T09:43:00.134Z,30.49
2019-02-19T09:44:04.639Z,29.93
2019-02-19T09:44:15.626Z,29.83
2019-02-19T09:45:15.035Z,30.7
2019-02-19T09:46:15.847Z,30.51
2019-02-19T09:47:17.146Z,30.23
2019-02-19T09:47:28.452Z,29.93
2019-02-19T09:48:29.421Z,29.64
2019-02-19T09:49:30.159Z,30.32
2019-02-19T09:50:30.469Z,31.07
2019-02-19T09:51:31.215Z,31.35
2019-02-19T09:52:32.511Z,31.93
2019-02-19T09:52:45.798Z,32.03
2019-02-19T09:53:01.786Z,31.92
2019-02-19T09:53:10.799Z,31.92
2019-02-19T09:53:22.527Z,31.63
2019-02-19T09:53:33.330Z,31.15
2019-02-19T09:54:33.713Z,32.31
2019-02-19T09:55:34.420Z,32.29
2019-02-19T09:56:35.859Z,32.29
2019-02-19T09:57:36.444Z,31.53
2019-02-19T09:58:37.115Z,31.51
2019-02-19T09:59:38.385Z,32.38
2019-02-19T10:00:39.404Z,31.82
2019-02-19T10:01:40.248Z,32.39
2019-02-19T10:02:43.672Z,31.72
2019-02-19T10:03:42.238Z,32.21
2019-02-19T10:04:43.664Z,32.2
2019-02-19T10:05:43.944Z,32.87
2019-02-19T10:06:44.662Z,31.82
2019-02-19T10:07:45.671Z,31.45
2019-02-19T10:08:45.951Z,30.97
2019-02-19T10:09:45.950Z,31.16
2019-02-19T10:10:47.106Z,30.41
2019-02-19T10:11:47.829Z,31.37
2019-02-19T10:12:49.134Z,31.45
2019-02-19T10:13:49.969Z,31.46
2019-02-19T10:14:50.841Z,32.51
2019-02-19T10:15:53.301Z,33.37
2019-02-19T10:16:52.685Z,31.08
2019-02-19T10:17:53.729Z,30.79
2019-02-19T10:18:54.017Z,30.71
2019-02-19T10:19:55.183Z,29.85
2019-02-19T10:20:55.897Z,29.96
2019-02-19T10:21:56.673Z,29.27
2019-02-19T10:22:58.667Z,30.43
2019-02-19T10:23:59.107Z,31.59
2019-02-19T10:25:02.978Z,31.69
2019-02-19T10:25:13.832Z,31.41
2019-02-19T10:26:13.459Z,31.98
2019-02-19T10:27:14.252Z,31.51
2019-02-19T10:28:14.977Z,31.32
2019-02-19T10:29:15.966Z,31.05
2019-02-19T10:30:16.989Z,31.05
2019-02-19T10:31:17.466Z,29.91
2019-02-19T10:32:18.603Z,29.33
2019-02-19T10:33:19.357Z,30.11
2019-02-19T10:34:19.995Z,30.61
2019-02-19T10:35:20.483Z,29.55
2019-02-19T10:36:23.039Z,29.74
2019-02-19T10:37:22.715Z,29.17
2019-02-19T10:38:23.471Z,29.76
2019-02-19T10:39:24.183Z,29.95
2019-02-19T10:40:25.198Z,29.74
2019-02-19T10:41:25.744Z,30.4
2019-02-19T10:42:26.487Z,30.5
2019-02-19T10:43:27.224Z,30.31
2019-02-19T10:44:27.918Z,31.26
2019-02-19T10:45:29.079Z,31.93
2019-02-19T10:46:30.238Z,32.51
2019-02-19T10:47:33.122Z,31.53
2019-02-19T10:47:43.832Z,31.54
2019-02-19T10:48:44.779Z,31.45
2019-02-19T10:49:46.219Z,31.54
2019-02-19T10:50:49.717Z,32.49
2019-02-19T10:51:00.133Z,32.68
2019-02-19T10:52:01.639Z,33.45
2019-02-19T10:53:02.968Z,33.16
2019-02-19T10:54:03.687Z,31.74
2019-02-19T10:55:04.702Z,31.54
2019-02-19T10:56:05.998Z,32.7
2019-02-19T10:57:06.000Z,31.45
2019-02-19T10:58:07.437Z,32.04
2019-02-19T10:59:08.873Z,31.96
2019-02-19T11:00:09.743Z,31.18
2019-02-19T11:01:10.462Z,31.54
2019-02-19T11:02:11.352Z,32.51
2019-02-19T11:03:12.583Z,33.45
2019-02-19T11:04:12.858Z,32.6
2019-02-19T11:05:14.017Z,32.03
2019-02-19T11:06:15.842Z,32.14
2019-02-19T11:07:17.361Z,31.46
2019-02-19T11:07:29.426Z,31.46
2019-02-19T11:08:31.119Z,31.08
2019-02-19T11:08:43.004Z,31.27
2019-02-19T11:09:43.205Z,31.46
2019-02-19T11:10:42.611Z,32.43
2019-02-19T11:11:45.747Z,31.95
2019-02-19T11:11:58.776Z,32.43
2019-02-19T11:12:55.972Z,31.75
2019-02-19T11:13:56.688Z,32.51
2019-02-19T11:14:57.406Z,32.43
2019-02-19T11:15:57.847Z,32.52
2019-02-19T11:16:59.289Z,31.65
2019-02-19T11:18:00.009Z,33.37
2019-02-19T11:19:00.965Z,35
2019-02-19T11:20:01.694Z,33.47
2019-02-19T11:21:01.705Z,32.23
2019-02-19T11:22:02.794Z,32.62
2019-02-19T11:23:03.508Z,31.65
2019-02-19T11:24:03.714Z,32.71
2019-02-19T11:25:04.440Z,33.08
2019-02-19T11:26:06.008Z,31.56
2019-02-19T11:27:06.702Z,32.51
2019-02-19T11:28:07.891Z,32.81
2019-02-19T11:29:08.603Z,32.51
2019-02-19T11:30:10.926Z,33.64
2019-02-19T11:31:11.605Z,32.79
2019-02-19T11:32:14.978Z,31.93
2019-02-19T11:32:26.877Z,32.03
2019-02-19T11:33:27.121Z,33.28
2019-02-19T11:33:35.703Z,33.56
2019-02-19T11:34:35.837Z,32.31
2019-02-19T11:35:36.835Z,33.75
2019-02-19T11:36:41.024Z,34.05
2019-02-19T11:36:49.613Z,34.12
2019-02-19T11:37:50.768Z,34.12
2019-02-19T11:38:52.841Z,34.97
2019-02-19T11:39:53.938Z,35.63
2019-02-19T11:40:55.124Z,34.28
2019-02-19T11:41:55.224Z,35.72
2019-02-19T11:42:55.940Z,34.95
2019-02-19T11:43:56.741Z,35.14
2019-02-19T11:44:57.009Z,35.34
2019-02-19T11:45:57.170Z,35.32
2019-02-19T11:46:57.889Z,36.95
2019-02-19T11:47:59.249Z,36.57
2019-02-19T11:48:59.963Z,36.86
2019-02-19T11:50:01.220Z,36.86
2019-02-19T11:51:01.891Z,36.65
2019-02-19T11:52:01.938Z,36.65
2019-02-19T11:53:02.652Z,37.22
2019-02-19T11:54:03.131Z,36.46
2019-02-19T11:55:03.990Z,37.11
2019-02-19T11:56:04.991Z,37.01
2019-02-19T11:57:06.840Z,37.4
2019-02-19T11:57:18.377Z,37.66
2019-02-19T11:58:18.933Z,37.66
2019-02-19T11:59:20.406Z,37.85
2019-02-19T12:00:20.871Z,37.95
2019-02-19T12:01:22.785Z,38.43
2019-02-19T12:01:33.274Z,38.24
2019-02-19T12:02:35.408Z,38.43
2019-02-19T12:03:36.031Z,38.62
2019-02-19T12:04:37.392Z,38.7
2019-02-19T12:05:38.183Z,38.34
2019-02-19T12:06:39.387Z,39.01
2019-02-19T12:07:40.155Z,38.72
2019-02-19T12:08:41.432Z,38.14
2019-02-19T12:09:44.136Z,38.24
2019-02-19T12:10:44.418Z,37.76
2019-02-19T12:11:44.166Z,37.57
2019-02-19T12:12:45.586Z,38.07
2019-02-19T12:13:46.224Z,37.78
2019-02-19T12:14:46.816Z,37.78
2019-02-19T12:15:47.450Z,38.54
2019-02-19T12:16:48.205Z,37.3
2019-02-19T12:17:49.249Z,37.2
2019-02-19T12:18:49.986Z,37.59
2019-02-19T12:19:50.711Z,37.59
2019-02-19T12:20:51.907Z,38.54
2019-02-19T12:21:52.627Z,38.53
2019-02-19T12:22:55.200Z,38.07